Huvudsida
METAR-TAF:

METAR-TAF

Flygplatser :

Grenchen, Schweiz

latitud: 47-10-53N, longitud: 007-24-59E, höjd: 430 m

Aktuellt väderrapport

Denna rapport gjordes för 38 minuter sedan, klockan 21:20 UTC
Vind 6 kt från sydväst
Temperatur 20°C
Fuktighet 73%
Tryck 1013 hPa
Sikt 10 km eller mer
Inga moln under 1 500 m eller inga cumulonimbus

METAR: LSZG 192120Z AUTO 22006KT CAVOK 20/15 Q1013

Tid: 23:58 (21:58 UTC)

Väderprognos

Denna rapport gjordes för 7 timmar och 33 minuter sedan, klockan 14:25 UTC
Prognos gäller från 19 kl. 15 UTC till 19 kl. 24 UTC
Vind 5 kt från sydväst
Sikt 10 km eller mer
Få moln på en höjd av 7000 ft
Temporärt
från 19 kl. 15 UTC till 19 kl. 24 UTC
Spridda moln på en höjd av 6000 ft, Högtornande cumulus.
Sannolikhet 30% :
Temporärt
från 19 kl. 15 UTC till 19 kl. 24 UTC
Vind 15 kt från väst/sydväst i byarna ända upp till 25 kt
regnskurar

TAF: LSZG 191425Z 1915/1924 22005KT 9999 FEW070 TEMPO 1915/1924 SCT060TCU PROB30 TEMPO 1915/1924 24015G25KT SHRA

Aktuella väderrapporter och prognoser från 4000 flygplatser (METAR- och TAF-rapporter).

De tillgängliga stationerna syns som gula och röda prickar på kartan.

För musen över prickarna för att se namnen på stationerna.

Klicka sedan för att få väderrapporter och prognoser.

För att ändra kartan: Klicka på de gröna knapparna med ett svart kors på för att zooma in; den gröna knappen med ett streck på för att zooma ut; eller på de gröna pilarna för angränsande kartor.


METAR-TAF: